Chek Lap Kok International Airport

VHHH | HKG

Hong Kong , Hong Kong

Monday, January 27th, 2020 | 08:57

Weather

VHHH 270030Z 03011KT 9999 FEW022 SCT035 11/05 Q1018 NOSIG

Charts

No Charts Available

Gates

207 Available

Runways

2 Available

Events

No events for this airport


New event